sensor_id;sensor_type;location;lat;lon;timestamp;P1;durP1;ratioP1;P2;durP2;ratioP2
22983;SDS011;11658;48.908;9.140;2023-06-26T04:01:49;8.00;;;6.80;;
22983;SDS011;11658;48.908;9.140;2023-06-26T04:04:14;7.80;;;6.97;;
22983;SDS011;11658;48.908;9.140;2023-06-26T04:06:40;8.00;;;6.73;;
22983;SDS011;11658;48.908;9.140;2023-06-26T04:09:05;7.97;;;6.67;;
22983;SDS011;11658;48.908;9.140;2023-06-26T04:11:31;8.37;;;7.47;;
22983;SDS011;11658;48.908;9.140;2023-06-26T04:13:57;9.00;;;7.80;;
22983;SDS011;11658;48.908;9.140;2023-06-26T04:16:22;9.83;;;7.80;;
22983;SDS011;11658;48.908;9.140;2023-06-26T04:18:50;7.97;;;6.83;;
22983;SDS011;11658;48.908;9.140;2023-06-26T04:21:16;10.83;;;7.03;;
22983;SDS011;11658;48.908;9.140;2023-06-26T04:23:42;9.00;;;6.93;;
22983;SDS011;11658;48.908;9.140;2023-06-26T04:26:07;8.53;;;6.97;;
22983;SDS011;11658;48.908;9.140;2023-06-26T04:28:34;8.90;;;7.30;;
22983;SDS011;11658;48.908;9.140;2023-06-26T04:31:01;9.27;;;7.33;;
22983;SDS011;11658;48.908;9.140;2023-06-26T04:33:28;8.67;;;6.90;;
22983;SDS011;11658;48.908;9.140;2023-06-26T04:35:54;8.23;;;6.67;;
22983;SDS011;11658;48.908;9.140;2023-06-26T04:38:19;8.02;;;7.05;;
22983;SDS011;11658;48.908;9.140;2023-06-26T04:40:46;10.00;;;6.93;;
22983;SDS011;11658;48.908;9.140;2023-06-26T04:43:12;8.32;;;7.10;;
22983;SDS011;11658;48.908;9.140;2023-06-26T04:45:38;6.78;;;6.07;;
22983;SDS011;11658;48.908;9.140;2023-06-26T04:48:03;6.43;;;5.78;;
22983;SDS011;11658;48.908;9.140;2023-06-26T04:50:30;8.02;;;6.13;;
22983;SDS011;11658;48.908;9.140;2023-06-26T04:52:56;7.70;;;6.32;;
22983;SDS011;11658;48.908;9.140;2023-06-26T04:55:25;7.07;;;6.28;;
22983;SDS011;11658;48.908;9.140;2023-06-26T04:57:51;7.40;;;6.40;;
22983;SDS011;11658;48.908;9.140;2023-06-26T05:00:17;6.80;;;6.10;;
22983;SDS011;11658;48.908;9.140;2023-06-26T05:02:43;7.57;;;6.15;;
22983;SDS011;11658;48.908;9.140;2023-06-26T05:05:09;6.63;;;5.95;;
22983;SDS011;11658;48.908;9.140;2023-06-26T05:07:35;6.72;;;6.10;;
22983;SDS011;11658;48.908;9.140;2023-06-26T05:10:01;7.57;;;6.22;;
22983;SDS011;11658;48.908;9.140;2023-06-26T05:12:27;6.60;;;5.90;;
22983;SDS011;11658;48.908;9.140;2023-06-26T05:14:53;6.45;;;5.85;;
22983;SDS011;11658;48.908;9.140;2023-06-26T05:17:18;7.78;;;6.55;;
22983;SDS011;11658;48.908;9.140;2023-06-26T05:19:44;8.50;;;6.20;;
22983;SDS011;11658;48.908;9.140;2023-06-26T05:22:09;6.40;;;5.80;;
22983;SDS011;11658;48.908;9.140;2023-06-26T05:24:37;7.00;;;6.30;;
22983;SDS011;11658;48.908;9.140;2023-06-26T05:27:04;7.30;;;6.15;;
22983;SDS011;11658;48.908;9.140;2023-06-26T05:29:30;7.55;;;6.57;;
22983;SDS011;11658;48.908;9.140;2023-06-26T05:31:57;7.93;;;6.28;;
22983;SDS011;11658;48.908;9.140;2023-06-26T05:34:23;7.72;;;6.40;;
22983;SDS011;11658;48.908;9.140;2023-06-26T05:36:52;6.85;;;6.20;;
22983;SDS011;11658;48.908;9.140;2023-06-26T05:39:23;6.32;;;5.43;;
22983;SDS011;11658;48.908;9.140;2023-06-26T05:41:49;6.38;;;5.80;;
22983;SDS011;11658;48.908;9.140;2023-06-26T05:44:15;8.50;;;6.20;;
22983;SDS011;11658;48.908;9.140;2023-06-26T05:46:41;5.90;;;5.38;;
22983;SDS011;11658;48.908;9.140;2023-06-26T05:49:06;6.35;;;5.75;;
22983;SDS011;11658;48.908;9.140;2023-06-26T05:51:35;5.97;;;5.00;;
22983;SDS011;11658;48.908;9.140;2023-06-26T05:54:01;6.85;;;5.32;;
22983;SDS011;11658;48.908;9.140;2023-06-26T05:56:29;5.88;;;5.28;;
22983;SDS011;11658;48.908;9.140;2023-06-26T05:58:55;5.63;;;5.13;;
22983;SDS011;11658;48.908;9.140;2023-06-26T06:01:22;10.05;;;5.50;;
22983;SDS011;11658;48.908;9.140;2023-06-26T06:03:48;5.60;;;5.10;;
22983;SDS011;11658;48.908;9.140;2023-06-26T06:06:13;7.13;;;5.45;;
22983;SDS011;11658;48.908;9.140;2023-06-26T06:08:40;5.93;;;5.00;;
22983;SDS011;11658;48.908;9.140;2023-06-26T06:11:06;6.30;;;5.47;;
22983;SDS011;11658;48.908;9.140;2023-06-26T06:13:32;5.85;;;5.25;;
22983;SDS011;11658;48.908;9.140;2023-06-26T06:15:57;5.78;;;5.05;;
22983;SDS011;11658;48.908;9.140;2023-06-26T06:18:23;5.25;;;4.75;;
22983;SDS011;11658;48.908;9.140;2023-06-26T06:20:48;7.80;;;4.78;;
22983;SDS011;11658;48.908;9.140;2023-06-26T06:23:14;5.57;;;5.07;;
22983;SDS011;11658;48.908;9.140;2023-06-26T06:25:39;5.95;;;5.20;;
22983;SDS011;11658;48.908;9.140;2023-06-26T06:28:05;5.55;;;4.85;;
22983;SDS011;11658;48.908;9.140;2023-06-26T06:30:31;5.93;;;5.38;;
22983;SDS011;11658;48.908;9.140;2023-06-26T06:32:57;5.95;;;5.35;;
22983;SDS011;11658;48.908;9.140;2023-06-26T06:35:23;5.30;;;4.80;;
22983;SDS011;11658;48.908;9.140;2023-06-26T06:37:48;6.57;;;5.30;;
22983;SDS011;11658;48.908;9.140;2023-06-26T06:40:14;5.85;;;5.25;;
22983;SDS011;11658;48.908;9.140;2023-06-26T06:42:40;6.03;;;5.15;;
22983;SDS011;11658;48.908;9.140;2023-06-26T06:45:06;7.05;;;5.63;;
22983;SDS011;11658;48.908;9.140;2023-06-26T06:47:32;6.70;;;5.40;;
22983;SDS011;11658;48.908;9.140;2023-06-26T06:49:58;5.82;;;5.32;;
22983;SDS011;11658;48.908;9.140;2023-06-26T06:52:26;5.60;;;5.05;;
22983;SDS011;11658;48.908;9.140;2023-06-26T06:57:19;6.30;;;5.70;;
22983;SDS011;11658;48.908;9.140;2023-06-26T06:59:47;5.32;;;4.75;;
22983;SDS011;11658;48.908;9.140;2023-06-26T07:02:14;5.70;;;5.07;;
22983;SDS011;11658;48.908;9.140;2023-06-26T07:04:40;5.85;;;5.25;;
22983;SDS011;11658;48.908;9.140;2023-06-26T07:07:06;5.38;;;4.88;;
22983;SDS011;11658;48.908;9.140;2023-06-26T07:09:31;6.00;;;5.40;;
22983;SDS011;11658;48.908;9.140;2023-06-26T07:11:58;6.68;;;5.60;;
22983;SDS011;11658;48.908;9.140;2023-06-26T07:14:24;7.50;;;5.40;;
22983;SDS011;11658;48.908;9.140;2023-06-26T07:16:49;6.63;;;5.63;;
22983;SDS011;11658;48.908;9.140;2023-06-26T07:19:15;6.00;;;5.30;;
22983;SDS011;11658;48.908;9.140;2023-06-26T07:21:40;5.88;;;5.28;;
22983;SDS011;11658;48.908;9.140;2023-06-26T07:24:07;5.68;;;5.18;;
22983;SDS011;11658;48.908;9.140;2023-06-26T07:26:32;6.80;;;5.60;;
22983;SDS011;11658;48.908;9.140;2023-06-26T07:28:58;5.10;;;4.60;;
22983;SDS011;11658;48.908;9.140;2023-06-26T07:31:24;5.97;;;5.28;;
22983;SDS011;11658;48.908;9.140;2023-06-26T07:33:49;5.97;;;5.38;;
22983;SDS011;11658;48.908;9.140;2023-06-26T07:36:15;6.22;;;5.40;;
22983;SDS011;11658;48.908;9.140;2023-06-26T07:38:40;7.85;;;5.72;;
22983;SDS011;11658;48.908;9.140;2023-06-26T07:41:06;6.15;;;5.55;;
22983;SDS011;11658;48.908;9.140;2023-06-26T07:43:31;5.93;;;5.13;;
22983;SDS011;11658;48.908;9.140;2023-06-26T07:45:57;5.50;;;5.00;;
22983;SDS011;11658;48.908;9.140;2023-06-26T07:48:24;5.50;;;5.00;;
22983;SDS011;11658;48.908;9.140;2023-06-26T07:50:50;6.72;;;5.28;;
22983;SDS011;11658;48.908;9.140;2023-06-26T07:53:15;6.28;;;4.88;;
22983;SDS011;11658;48.908;9.140;2023-06-26T07:55:41;6.50;;;5.72;;
22983;SDS011;11658;48.908;9.140;2023-06-26T07:58:07;5.55;;;4.88;;
22983;SDS011;11658;48.908;9.140;2023-06-26T08:00:33;6.68;;;5.13;;
22983;SDS011;11658;48.908;9.140;2023-06-26T08:02:59;5.55;;;5.05;;
22983;SDS011;11658;48.908;9.140;2023-06-26T08:05:25;6.00;;;4.70;;
22983;SDS011;11658;48.908;9.140;2023-06-26T08:07:50;5.88;;;5.28;;
22983;SDS011;11658;48.908;9.140;2023-06-26T08:10:16;5.63;;;5.07;;
22983;SDS011;11658;48.908;9.140;2023-06-26T08:12:42;5.88;;;5.30;;
22983;SDS011;11658;48.908;9.140;2023-06-26T08:15:10;9.43;;;5.43;;
22983;SDS011;11658;48.908;9.140;2023-06-26T08:17:36;7.03;;;5.15;;
22983;SDS011;11658;48.908;9.140;2023-06-26T08:20:02;5.50;;;4.82;;
22983;SDS011;11658;48.908;9.140;2023-06-26T08:22:28;5.43;;;4.80;;
22983;SDS011;11658;48.908;9.140;2023-06-26T08:24:54;7.30;;;4.75;;
22983;SDS011;11658;48.908;9.140;2023-06-26T08:27:20;5.68;;;4.80;;
22983;SDS011;11658;48.908;9.140;2023-06-26T08:29:45;5.72;;;4.78;;
22983;SDS011;11658;48.908;9.140;2023-06-26T08:32:11;6.00;;;5.40;;
22983;SDS011;11658;48.908;9.140;2023-06-26T08:34:37;5.05;;;4.57;;
22983;SDS011;11658;48.908;9.140;2023-06-26T08:37:02;5.97;;;4.78;;
22983;SDS011;11658;48.908;9.140;2023-06-26T08:39:28;9.07;;;5.38;;
22983;SDS011;11658;48.908;9.140;2023-06-26T08:41:54;5.70;;;5.20;;
22983;SDS011;11658;48.908;9.140;2023-06-26T08:44:19;5.88;;;4.97;;
22983;SDS011;11658;48.908;9.140;2023-06-26T08:46:49;6.88;;;4.88;;
22983;SDS011;11658;48.908;9.140;2023-06-26T08:51:45;4.95;;;4.55;;
22983;SDS011;11658;48.908;9.140;2023-06-26T08:54:23;4.93;;;4.25;;
22983;SDS011;11658;48.908;9.140;2023-06-26T08:56:55;5.00;;;4.20;;
22983;SDS011;11658;48.908;9.140;2023-06-26T08:59:23;5.68;;;4.28;;
22983;SDS011;11658;48.908;9.140;2023-06-26T09:01:50;6.95;;;4.70;;
22983;SDS011;11658;48.908;9.140;2023-06-26T09:04:15;6.57;;;4.88;;
22983;SDS011;11658;48.908;9.140;2023-06-26T09:06:41;6.25;;;4.07;;
22983;SDS011;11658;48.908;9.140;2023-06-26T09:09:07;5.65;;;4.13;;
22983;SDS011;11658;48.908;9.140;2023-06-26T09:11:32;6.45;;;4.28;;
22983;SDS011;11658;48.908;9.140;2023-06-26T09:13:58;5.20;;;3.53;;
22983;SDS011;11658;48.908;9.140;2023-06-26T09:16:25;5.60;;;3.70;;
22983;SDS011;11658;48.908;9.140;2023-06-26T09:18:51;5.03;;;4.13;;
22983;SDS011;11658;48.908;9.140;2023-06-26T09:21:17;4.55;;;4.03;;
22983;SDS011;11658;48.908;9.140;2023-06-26T09:23:43;4.70;;;4.28;;
22983;SDS011;11658;48.908;9.140;2023-06-26T09:26:09;5.55;;;4.10;;
22983;SDS011;11658;48.908;9.140;2023-06-26T09:28:36;4.20;;;3.80;;
22983;SDS011;11658;48.908;9.140;2023-06-26T09:31:02;4.15;;;3.75;;
22983;SDS011;11658;48.908;9.140;2023-06-26T09:33:32;5.20;;;4.22;;
22983;SDS011;11658;48.908;9.140;2023-06-26T09:36:00;4.88;;;4.40;;
22983;SDS011;11658;48.908;9.140;2023-06-26T09:38:26;8.63;;;4.22;;
22983;SDS011;11658;48.908;9.140;2023-06-26T09:40:52;6.95;;;4.75;;
22983;SDS011;11658;48.908;9.140;2023-06-26T09:43:18;4.90;;;4.38;;
22983;SDS011;11658;48.908;9.140;2023-06-26T09:45:44;8.13;;;4.40;;
22983;SDS011;11658;48.908;9.140;2023-06-26T09:48:09;6.38;;;4.40;;
22983;SDS011;11658;48.908;9.140;2023-06-26T09:50:36;4.55;;;4.15;;
22983;SDS011;11658;48.908;9.140;2023-06-26T09:53:12;7.20;;;4.10;;
22983;SDS011;11658;48.908;9.140;2023-06-26T09:55:39;6.38;;;4.05;;
22983;SDS011;11658;48.908;9.140;2023-06-26T09:58:10;7.82;;;4.57;;
22983;SDS011;11658;48.908;9.140;2023-06-26T10:00:40;5.78;;;4.57;;
22983;SDS011;11658;48.908;9.140;2023-06-26T10:03:07;5.22;;;4.72;;
22983;SDS011;11658;48.908;9.140;2023-06-26T10:05:33;6.32;;;4.63;;
22983;SDS011;11658;48.908;9.140;2023-06-26T10:07:58;5.32;;;4.43;;
22983;SDS011;11658;48.908;9.140;2023-06-26T10:10:26;8.23;;;5.00;;
22983;SDS011;11658;48.908;9.140;2023-06-26T10:12:54;5.97;;;4.60;;
22983;SDS011;11658;48.908;9.140;2023-06-26T10:15:24;5.15;;;4.53;;
22983;SDS011;11658;48.908;9.140;2023-06-26T10:17:52;4.90;;;4.43;;
22983;SDS011;11658;48.908;9.140;2023-06-26T10:20:21;5.82;;;4.55;;
22983;SDS011;11658;48.908;9.140;2023-06-26T10:22:47;6.60;;;4.70;;
22983;SDS011;11658;48.908;9.140;2023-06-26T10:25:18;4.93;;;4.43;;
22983;SDS011;11658;48.908;9.140;2023-06-26T10:27:45;5.97;;;4.30;;
22983;SDS011;11658;48.908;9.140;2023-06-26T10:30:16;5.32;;;4.63;;
22983;SDS011;11658;48.908;9.140;2023-06-26T10:32:47;5.93;;;4.80;;
22983;SDS011;11658;48.908;9.140;2023-06-26T10:35:13;5.03;;;4.47;;
22983;SDS011;11658;48.908;9.140;2023-06-26T10:37:43;8.30;;;4.63;;
22983;SDS011;11658;48.908;9.140;2023-06-26T10:40:10;6.97;;;4.40;;
22983;SDS011;11658;48.908;9.140;2023-06-26T10:42:38;5.68;;;4.80;;
22983;SDS011;11658;48.908;9.140;2023-06-26T10:47:45;5.75;;;5.07;;
22983;SDS011;11658;48.908;9.140;2023-06-26T10:52:45;5.45;;;4.95;;
22983;SDS011;11658;48.908;9.140;2023-06-26T10:55:11;7.22;;;5.05;;
22983;SDS011;11658;48.908;9.140;2023-06-26T10:57:38;5.80;;;5.20;;
22983;SDS011;11658;48.908;9.140;2023-06-26T11:00:13;6.55;;;5.32;;
22983;SDS011;11658;48.908;9.140;2023-06-26T11:02:49;6.65;;;4.60;;
22983;SDS011;11658;48.908;9.140;2023-06-26T11:05:25;5.85;;;5.20;;
22983;SDS011;11658;48.908;9.140;2023-06-26T11:08:02;6.47;;;4.88;;
22983;SDS011;11658;48.908;9.140;2023-06-26T11:10:52;5.40;;;4.90;;
22983;SDS011;11658;48.908;9.140;2023-06-26T11:13:20;5.63;;;5.00;;
22983;SDS011;11658;48.908;9.140;2023-06-26T11:15:49;5.57;;;5.07;;
22983;SDS011;11658;48.908;9.140;2023-06-26T11:18:15;5.57;;;5.07;;
22983;SDS011;11658;48.908;9.140;2023-06-26T11:20:41;5.72;;;5.13;;
22983;SDS011;11658;48.908;9.140;2023-06-26T11:23:10;5.45;;;4.95;;
22983;SDS011;11658;48.908;9.140;2023-06-26T11:25:37;8.23;;;5.20;;
22983;SDS011;11658;48.908;9.140;2023-06-26T11:28:09;5.35;;;4.82;;
22983;SDS011;11658;48.908;9.140;2023-06-26T11:30:34;5.68;;;4.78;;
22983;SDS011;11658;48.908;9.140;2023-06-26T11:33:07;5.78;;;4.50;;
22983;SDS011;11658;48.908;9.140;2023-06-26T11:35:34;5.97;;;5.00;;
22983;SDS011;11658;48.908;9.140;2023-06-26T11:38:00;9.43;;;5.00;;
22983;SDS011;11658;48.908;9.140;2023-06-26T11:40:30;6.35;;;4.90;;
22983;SDS011;11658;48.908;9.140;2023-06-26T11:43:02;6.43;;;4.25;;
22983;SDS011;11658;48.908;9.140;2023-06-26T11:45:29;6.80;;;4.63;;
22983;SDS011;11658;48.908;9.140;2023-06-26T11:47:56;9.95;;;4.78;;
22983;SDS011;11658;48.908;9.140;2023-06-26T11:50:23;8.75;;;4.72;;
22983;SDS011;11658;48.908;9.140;2023-06-26T11:52:53;9.48;;;5.07;;
22983;SDS011;11658;48.908;9.140;2023-06-26T11:55:25;5.70;;;5.10;;
22983;SDS011;11658;48.908;9.140;2023-06-26T11:57:54;5.30;;;4.78;;
22983;SDS011;11658;48.908;9.140;2023-06-26T12:00:21;5.97;;;5.03;;
22983;SDS011;11658;48.908;9.140;2023-06-26T12:02:47;6.75;;;4.47;;
22983;SDS011;11658;48.908;9.140;2023-06-26T12:05:13;6.68;;;4.95;;
22983;SDS011;11658;48.908;9.140;2023-06-26T12:07:43;5.63;;;4.78;;
22983;SDS011;11658;48.908;9.140;2023-06-26T12:10:11;7.50;;;5.10;;
22983;SDS011;11658;48.908;9.140;2023-06-26T12:12:37;5.43;;;4.93;;
22983;SDS011;11658;48.908;9.140;2023-06-26T12:15:03;5.93;;;4.78;;
22983;SDS011;11658;48.908;9.140;2023-06-26T12:17:31;5.60;;;5.05;;
22983;SDS011;11658;48.908;9.140;2023-06-26T12:19:57;6.80;;;4.70;;
22983;SDS011;11658;48.908;9.140;2023-06-26T12:22:22;5.95;;;4.90;;
22983;SDS011;11658;48.908;9.140;2023-06-26T12:24:48;6.22;;;4.82;;
22983;SDS011;11658;48.908;9.140;2023-06-26T12:27:14;7.72;;;5.13;;
22983;SDS011;11658;48.908;9.140;2023-06-26T12:29:49;6.32;;;4.90;;
22983;SDS011;11658;48.908;9.140;2023-06-26T12:32:18;7.38;;;4.60;;
22983;SDS011;11658;48.908;9.140;2023-06-26T12:34:53;9.25;;;5.15;;
22983;SDS011;11658;48.908;9.140;2023-06-26T12:37:22;7.43;;;5.00;;
22983;SDS011;11658;48.908;9.140;2023-06-26T12:39:51;5.28;;;4.75;;
22983;SDS011;11658;48.908;9.140;2023-06-26T12:42:18;5.28;;;4.78;;
22983;SDS011;11658;48.908;9.140;2023-06-26T12:44:45;5.57;;;4.88;;
22983;SDS011;11658;48.908;9.140;2023-06-26T12:47:11;5.15;;;4.47;;
22983;SDS011;11658;48.908;9.140;2023-06-26T12:49:40;5.45;;;4.63;;
22983;SDS011;11658;48.908;9.140;2023-06-26T12:52:07;5.68;;;4.35;;
22983;SDS011;11658;48.908;9.140;2023-06-26T12:54:39;5.55;;;4.43;;
22983;SDS011;11658;48.908;9.140;2023-06-26T12:57:07;6.85;;;4.43;;
22983;SDS011;11658;48.908;9.140;2023-06-26T12:59:33;4.68;;;4.28;;
22983;SDS011;11658;48.908;9.140;2023-06-26T13:02:00;8.68;;;4.65;;
22983;SDS011;11658;48.908;9.140;2023-06-26T13:04:26;5.82;;;4.50;;
22983;SDS011;11658;48.908;9.140;2023-06-26T13:06:52;4.72;;;4.18;;
22983;SDS011;11658;48.908;9.140;2023-06-26T13:09:20;6.57;;;4.60;;
22983;SDS011;11658;48.908;9.140;2023-06-26T13:11:46;4.38;;;3.95;;
22983;SDS011;11658;48.908;9.140;2023-06-26T13:14:12;6.32;;;4.20;;
22983;SDS011;11658;48.908;9.140;2023-06-26T13:16:38;5.47;;;4.10;;
22983;SDS011;11658;48.908;9.140;2023-06-26T13:19:04;8.15;;;4.25;;
22983;SDS011;11658;48.908;9.140;2023-06-26T13:21:30;4.28;;;3.88;;
22983;SDS011;11658;48.908;9.140;2023-06-26T13:23:56;6.28;;;4.20;;
22983;SDS011;11658;48.908;9.140;2023-06-26T13:26:22;4.55;;;3.85;;
22983;SDS011;11658;48.908;9.140;2023-06-26T13:28:48;4.07;;;3.70;;
22983;SDS011;11658;48.908;9.140;2023-06-26T13:31:14;5.28;;;3.90;;
22983;SDS011;11658;48.908;9.140;2023-06-26T13:33:40;4.72;;;4.15;;
22983;SDS011;11658;48.908;9.140;2023-06-26T13:36:06;4.82;;;3.78;;
22983;SDS011;11658;48.908;9.140;2023-06-26T13:38:34;4.00;;;3.60;;
22983;SDS011;11658;48.908;9.140;2023-06-26T13:41:00;5.55;;;3.80;;
22983;SDS011;11658;48.908;9.140;2023-06-26T13:43:27;5.28;;;3.85;;
22983;SDS011;11658;48.908;9.140;2023-06-26T13:45:53;6.50;;;3.70;;
22983;SDS011;11658;48.908;9.140;2023-06-26T13:48:19;4.53;;;3.45;;
22983;SDS011;11658;48.908;9.140;2023-06-26T13:50:45;4.07;;;3.17;;
22983;SDS011;11658;48.908;9.140;2023-06-26T13:53:11;4.93;;;3.33;;
22983;SDS011;11658;48.908;9.140;2023-06-26T13:55:37;5.78;;;3.35;;
22983;SDS011;11658;48.908;9.140;2023-06-26T13:58:06;4.68;;;3.22;;
22983;SDS011;11658;48.908;9.140;2023-06-26T14:00:33;5.38;;;3.30;;
22983;SDS011;11658;48.908;9.140;2023-06-26T14:03:00;5.55;;;3.15;;
22983;SDS011;11658;48.908;9.140;2023-06-26T14:05:28;7.20;;;3.10;;
22983;SDS011;11658;48.908;9.140;2023-06-26T14:07:54;3.38;;;2.90;;
22983;SDS011;11658;48.908;9.140;2023-06-26T14:10:20;4.13;;;2.90;;
22983;SDS011;11658;48.908;9.140;2023-06-26T14:12:46;3.55;;;2.65;;
22983;SDS011;11658;48.908;9.140;2023-06-26T14:15:12;2.80;;;2.58;;
22983;SDS011;11658;48.908;9.140;2023-06-26T14:17:37;3.38;;;2.90;;
22983;SDS011;11658;48.908;9.140;2023-06-26T14:20:06;3.78;;;2.70;;
22983;SDS011;11658;48.908;9.140;2023-06-26T14:22:38;4.25;;;3.20;;
22983;SDS011;11658;48.908;9.140;2023-06-26T14:25:04;5.07;;;3.58;;
22983;SDS011;11658;48.908;9.140;2023-06-26T14:27:31;4.20;;;3.15;;
22983;SDS011;11658;48.908;9.140;2023-06-26T14:29:57;4.03;;;3.33;;
22983;SDS011;11658;48.908;9.140;2023-06-26T14:32:22;3.47;;;2.85;;
22983;SDS011;11658;48.908;9.140;2023-06-26T14:34:48;3.75;;;2.70;;
22983;SDS011;11658;48.908;9.140;2023-06-26T14:37:13;5.40;;;2.45;;
22983;SDS011;11658;48.908;9.140;2023-06-26T14:39:39;3.47;;;2.65;;
22983;SDS011;11658;48.908;9.140;2023-06-26T14:42:05;3.67;;;2.70;;
22983;SDS011;11658;48.908;9.140;2023-06-26T14:44:30;3.85;;;2.95;;
22983;SDS011;11658;48.908;9.140;2023-06-26T14:46:56;7.07;;;3.47;;
22983;SDS011;11658;48.908;9.140;2023-06-26T14:49:22;5.93;;;3.00;;
22983;SDS011;11658;48.908;9.140;2023-06-26T14:51:47;4.88;;;3.08;;
22983;SDS011;11658;48.908;9.140;2023-06-26T14:54:13;4.82;;;3.00;;
22983;SDS011;11658;48.908;9.140;2023-06-26T14:56:38;4.68;;;2.78;;
22983;SDS011;11658;48.908;9.140;2023-06-26T14:59:04;4.82;;;2.83;;
22983;SDS011;11658;48.908;9.140;2023-06-26T15:01:32;6.07;;;2.97;;
22983;SDS011;11658;48.908;9.140;2023-06-26T15:03:58;5.30;;;3.30;;
22983;SDS011;11658;48.908;9.140;2023-06-26T15:06:24;4.75;;;3.25;;
22983;SDS011;11658;48.908;9.140;2023-06-26T15:08:49;5.50;;;3.60;;
22983;SDS011;11658;48.908;9.140;2023-06-26T15:11:15;5.85;;;3.33;;
22983;SDS011;11658;48.908;9.140;2023-06-26T15:13:40;5.85;;;3.90;;
22983;SDS011;11658;48.908;9.140;2023-06-26T15:16:06;4.10;;;3.40;;
22983;SDS011;11658;48.908;9.140;2023-06-26T15:18:32;4.68;;;3.50;;
22983;SDS011;11658;48.908;9.140;2023-06-26T15:20:57;6.60;;;4.20;;
22983;SDS011;11658;48.908;9.140;2023-06-26T15:23:23;7.47;;;4.13;;
22983;SDS011;11658;48.908;9.140;2023-06-26T15:25:48;6.25;;;4.18;;
22983;SDS011;11658;48.908;9.140;2023-06-26T15:28:14;4.75;;;4.10;;
22983;SDS011;11658;48.908;9.140;2023-06-26T15:30:40;11.90;;;4.50;;
22983;SDS011;11658;48.908;9.140;2023-06-26T15:33:05;6.07;;;4.30;;
22983;SDS011;11658;48.908;9.140;2023-06-26T15:35:31;6.97;;;4.18;;
22983;SDS011;11658;48.908;9.140;2023-06-26T15:37:57;6.32;;;4.70;;
22983;SDS011;11658;48.908;9.140;2023-06-26T15:40:22;5.63;;;4.88;;
22983;SDS011;11658;48.908;9.140;2023-06-26T15:42:49;7.35;;;4.90;;
22983;SDS011;11658;48.908;9.140;2023-06-26T15:45:16;6.80;;;4.97;;
22983;SDS011;11658;48.908;9.140;2023-06-26T15:47:50;6.50;;;5.18;;
22983;SDS011;11658;48.908;9.140;2023-06-26T15:50:17;5.25;;;4.45;;
22983;SDS011;11658;48.908;9.140;2023-06-26T15:52:44;5.82;;;4.85;;
22983;SDS011;11658;48.908;9.140;2023-06-26T15:55:10;8.55;;;4.85;;
22983;SDS011;11658;48.908;9.140;2023-06-26T15:57:36;6.18;;;4.93;;
22983;SDS011;11658;48.908;9.140;2023-06-26T16:00:02;9.73;;;5.18;;
22983;SDS011;11658;48.908;9.140;2023-06-26T16:02:29;5.15;;;4.65;;
22983;SDS011;11658;48.908;9.140;2023-06-26T16:04:54;7.35;;;4.78;;
22983;SDS011;11658;48.908;9.140;2023-06-26T16:07:20;7.43;;;4.65;;
22983;SDS011;11658;48.908;9.140;2023-06-26T16:09:46;7.13;;;4.53;;
22983;SDS011;11658;48.908;9.140;2023-06-26T16:12:12;6.20;;;4.78;;
22983;SDS011;11658;48.908;9.140;2023-06-26T16:14:38;5.80;;;4.38;;
22983;SDS011;11658;48.908;9.140;2023-06-26T16:17:04;4.88;;;4.25;;
22983;SDS011;11658;48.908;9.140;2023-06-26T16:19:30;7.00;;;3.92;;
22983;SDS011;11658;48.908;9.140;2023-06-26T16:21:56;6.47;;;4.40;;
22983;SDS011;11658;48.908;9.140;2023-06-26T16:24:21;6.38;;;3.83;;
22983;SDS011;11658;48.908;9.140;2023-06-26T16:26:47;7.05;;;3.90;;
22983;SDS011;11658;48.908;9.140;2023-06-26T16:29:12;3.75;;;3.20;;
22983;SDS011;11658;48.908;9.140;2023-06-26T16:31:38;7.68;;;3.28;;
22983;SDS011;11658;48.908;9.140;2023-06-26T16:34:04;3.55;;;2.70;;
22983;SDS011;11658;48.908;9.140;2023-06-26T16:36:29;6.15;;;2.90;;
22983;SDS011;11658;48.908;9.140;2023-06-26T16:38:55;4.18;;;2.67;;
22983;SDS011;11658;48.908;9.140;2023-06-26T16:41:20;4.13;;;2.70;;
22983;SDS011;11658;48.908;9.140;2023-06-26T16:43:46;5.57;;;2.35;;
22983;SDS011;11658;48.908;9.140;2023-06-26T16:46:12;3.05;;;2.00;;
22983;SDS011;11658;48.908;9.140;2023-06-26T16:48:37;3.25;;;2.03;;
22983;SDS011;11658;48.908;9.140;2023-06-26T16:51:04;2.92;;;2.15;;
22983;SDS011;11658;48.908;9.140;2023-06-26T16:53:30;4.28;;;1.80;;
22983;SDS011;11658;48.908;9.140;2023-06-26T16:55:56;2.85;;;1.85;;
22983;SDS011;11658;48.908;9.140;2023-06-26T16:58:21;2.55;;;1.60;;
22983;SDS011;11658;48.908;9.140;2023-06-26T17:00:47;2.88;;;2.10;;
22983;SDS011;11658;48.908;9.140;2023-06-26T17:03:13;1.77;;;1.60;;
22983;SDS011;11658;48.908;9.140;2023-06-26T17:05:39;2.80;;;1.80;;
22983;SDS011;11658;48.908;9.140;2023-06-26T17:08:05;1.92;;;1.40;;
22983;SDS011;11658;48.908;9.140;2023-06-26T17:10:34;3.00;;;1.63;;
22983;SDS011;11658;48.908;9.140;2023-06-26T17:13:00;2.95;;;1.60;;
22983;SDS011;11658;48.908;9.140;2023-06-26T17:15:25;3.30;;;1.77;;
22983;SDS011;11658;48.908;9.140;2023-06-26T17:17:51;1.90;;;1.30;;
22983;SDS011;11658;48.908;9.140;2023-06-26T17:20:17;2.33;;;1.50;;
22983;SDS011;11658;48.908;9.140;2023-06-26T17:22:44;3.53;;;1.80;;
22983;SDS011;11658;48.908;9.140;2023-06-26T17:25:09;3.15;;;1.67;;
22983;SDS011;11658;48.908;9.140;2023-06-26T17:27:37;4.45;;;1.48;;
22983;SDS011;11658;48.908;9.140;2023-06-26T17:30:03;3.88;;;2.00;;
22983;SDS011;11658;48.908;9.140;2023-06-26T17:32:29;3.53;;;1.75;;
22983;SDS011;11658;48.908;9.140;2023-06-26T17:34:55;2.47;;;1.70;;
22983;SDS011;11658;48.908;9.140;2023-06-26T17:37:24;5.05;;;2.15;;
22983;SDS011;11658;48.908;9.140;2023-06-26T17:39:50;3.13;;;1.80;;
22983;SDS011;11658;48.908;9.140;2023-06-26T17:42:16;2.63;;;1.60;;
22983;SDS011;11658;48.908;9.140;2023-06-26T17:44:42;4.65;;;1.77;;
22983;SDS011;11658;48.908;9.140;2023-06-26T17:47:07;4.20;;;1.95;;
22983;SDS011;11658;48.908;9.140;2023-06-26T17:49:33;4.90;;;1.90;;
22983;SDS011;11658;48.908;9.140;2023-06-26T17:51:59;2.20;;;1.80;;
22983;SDS011;11658;48.908;9.140;2023-06-26T17:54:26;5.85;;;1.90;;
22983;SDS011;11658;48.908;9.140;2023-06-26T17:56:52;5.03;;;1.67;;
22983;SDS011;11658;48.908;9.140;2023-06-26T17:59:18;3.80;;;1.90;;
22983;SDS011;11658;48.908;9.140;2023-06-26T18:01:44;5.10;;;1.80;;
22983;SDS011;11658;48.908;9.140;2023-06-26T18:04:09;3.80;;;1.90;;
22983;SDS011;11658;48.908;9.140;2023-06-26T18:06:35;3.20;;;1.70;;
22983;SDS011;11658;48.908;9.140;2023-06-26T18:09:01;4.15;;;1.90;;
22983;SDS011;11658;48.908;9.140;2023-06-26T18:11:29;4.72;;;1.80;;
22983;SDS011;11658;48.908;9.140;2023-06-26T18:13:55;4.90;;;1.70;;
22983;SDS011;11658;48.908;9.140;2023-06-26T18:16:23;3.80;;;1.70;;
22983;SDS011;11658;48.908;9.140;2023-06-26T18:18:49;4.97;;;1.73;;
22983;SDS011;11658;48.908;9.140;2023-06-26T18:21:16;3.65;;;1.92;;
22983;SDS011;11658;48.908;9.140;2023-06-26T18:23:42;4.88;;;1.73;;
22983;SDS011;11658;48.908;9.140;2023-06-26T18:26:08;4.45;;;2.08;;
22983;SDS011;11658;48.908;9.140;2023-06-26T18:28:33;4.22;;;1.75;;
22983;SDS011;11658;48.908;9.140;2023-06-26T18:30:59;3.80;;;1.55;;
22983;SDS011;11658;48.908;9.140;2023-06-26T18:33:24;3.17;;;1.60;;
22983;SDS011;11658;48.908;9.140;2023-06-26T18:35:52;4.85;;;1.48;;
22983;SDS011;11658;48.908;9.140;2023-06-26T18:38:18;3.58;;;1.50;;
22983;SDS011;11658;48.908;9.140;2023-06-26T18:40:43;3.17;;;1.50;;
22983;SDS011;11658;48.908;9.140;2023-06-26T18:43:10;2.90;;;1.50;;
22983;SDS011;11658;48.908;9.140;2023-06-26T18:45:35;4.07;;;1.40;;
22983;SDS011;11658;48.908;9.140;2023-06-26T18:48:01;3.40;;;1.42;;
22983;SDS011;11658;48.908;9.140;2023-06-26T18:50:29;2.42;;;1.63;;
22983;SDS011;11658;48.908;9.140;2023-06-26T18:52:55;3.53;;;1.77;;
22983;SDS011;11658;48.908;9.140;2023-06-26T18:55:21;2.55;;;1.55;;